createdAt,value
2023-04-07T00:00:49.303Z,76.38
2023-04-07T00:03:16.643Z,76.27
2023-04-07T00:05:43.500Z,76.33
2023-04-07T00:08:10.703Z,75.91
2023-04-07T00:10:37.393Z,76.13
2023-04-07T00:13:04.450Z,76.42
2023-04-07T00:15:31.340Z,76.37
2023-04-07T00:17:58.379Z,76.59
2023-04-07T00:20:25.354Z,76.81
2023-04-07T00:22:52.013Z,76.72
2023-04-07T00:25:18.706Z,76.88
2023-04-07T00:27:45.497Z,76.95
2023-04-07T00:30:12.739Z,76.52
2023-04-07T00:32:39.463Z,76.30
2023-04-07T00:35:06.605Z,76.26
2023-04-07T00:37:33.375Z,76.44
2023-04-07T00:40:00.169Z,76.35
2023-04-07T00:42:27.168Z,76.28
2023-04-07T00:44:54.503Z,76.33
2023-04-07T00:47:21.332Z,76.33
2023-04-07T00:49:48.128Z,76.33
2023-04-07T00:52:15.270Z,76.60
2023-04-07T00:54:42.855Z,76.44
2023-04-07T00:57:09.542Z,76.51
2023-04-07T00:59:36.688Z,76.56
2023-04-07T01:02:11.089Z,76.76
2023-04-07T01:04:45.528Z,76.60
2023-04-07T01:07:18.507Z,76.84
2023-04-07T01:09:55.768Z,76.54
2023-04-07T01:12:29.554Z,76.91
2023-04-07T01:15:01.239Z,76.78
2023-04-07T01:17:46.586Z,76.49
2023-04-07T01:20:17.036Z,76.86
2023-04-07T01:22:47.738Z,76.79
2023-04-07T01:25:30.700Z,76.60
2023-04-07T01:28:16.348Z,76.45
2023-04-07T01:30:43.617Z,76.87
2023-04-07T01:33:11.324Z,76.52
2023-04-07T01:35:39.323Z,76.93
2023-04-07T01:38:06.707Z,76.86
2023-04-07T01:40:34.233Z,76.91
2023-04-07T01:43:01.670Z,76.61
2023-04-07T01:45:29.061Z,76.79
2023-04-07T01:47:56.176Z,76.62
2023-04-07T01:50:23.399Z,76.65
2023-04-07T01:52:50.289Z,76.84
2023-04-07T01:55:17.005Z,76.69
2023-04-07T01:58:06.365Z,76.60
2023-04-07T02:00:34.598Z,76.53
2023-04-07T02:03:21.245Z,76.62
2023-04-07T02:05:49.943Z,76.73
2023-04-07T02:08:18.616Z,76.92
2023-04-07T02:10:48.148Z,76.96
2023-04-07T02:13:16.901Z,77.14
2023-04-07T02:15:45.465Z,77.39
2023-04-07T02:18:13.938Z,77.38
2023-04-07T02:20:41.709Z,77.32
2023-04-07T02:23:11.264Z,76.99
2023-04-07T02:25:40.806Z,76.97
2023-04-07T02:28:07.887Z,77.17
2023-04-07T02:30:35.782Z,77.25
2023-04-07T02:33:02.673Z,77.16
2023-04-07T02:35:29.412Z,76.97
2023-04-07T02:37:56.182Z,77.27
2023-04-07T02:40:22.913Z,77.14
2023-04-07T02:42:53.416Z,77.06
2023-04-07T02:45:22.794Z,77.25
2023-04-07T02:47:49.532Z,77.20
2023-04-07T02:50:17.896Z,77.24
2023-04-07T02:52:44.645Z,77.29
2023-04-07T02:55:14.133Z,77.36
2023-04-07T02:57:40.896Z,77.27
2023-04-07T03:00:14.616Z,77.30
2023-04-07T03:03:07.777Z,77.40
2023-04-07T03:05:37.613Z,77.18
2023-04-07T03:08:05.478Z,77.43
2023-04-07T03:10:32.395Z,77.42
2023-04-07T03:12:59.101Z,77.44
2023-04-07T03:15:26.209Z,77.42
2023-04-07T03:17:53.219Z,77.50
2023-04-07T03:20:20.757Z,77.60
2023-04-07T03:22:47.584Z,77.27
2023-04-07T03:25:27.704Z,77.17
2023-04-07T03:27:56.254Z,77.30
2023-04-07T03:30:25.614Z,77.43
2023-04-07T03:32:52.386Z,77.26
2023-04-07T03:35:19.149Z,77.49
2023-04-07T03:37:46.326Z,77.39
2023-04-07T03:40:16.952Z,77.33
2023-04-07T03:42:46.778Z,77.45
2023-04-07T03:45:14.471Z,77.65
2023-04-07T03:47:46.552Z,77.48
2023-04-07T03:50:13.727Z,77.62
2023-04-07T03:52:51.378Z,77.74
2023-04-07T03:55:26.796Z,77.80
2023-04-07T03:57:58.160Z,77.89
2023-04-07T04:00:28.571Z,77.76
2023-04-07T04:03:05.881Z,77.91
2023-04-07T04:05:35.296Z,77.49
2023-04-07T04:08:02.159Z,77.63
2023-04-07T04:10:29.025Z,77.41
2023-04-07T04:12:55.912Z,77.53
2023-04-07T04:15:22.607Z,77.50
2023-04-07T04:17:50.650Z,77.65
2023-04-07T04:20:18.039Z,77.50
2023-04-07T04:22:48.323Z,77.54
2023-04-07T04:25:16.947Z,77.28
2023-04-07T04:27:47.774Z,77.31
2023-04-07T04:30:20.909Z,77.33
2023-04-07T04:32:51.683Z,77.24
2023-04-07T04:35:24.114Z,77.24
2023-04-07T04:38:03.473Z,77.39
2023-04-07T04:40:30.763Z,77.14
2023-04-07T04:42:57.520Z,77.38
2023-04-07T04:45:25.809Z,77.23
2023-04-07T04:47:52.515Z,77.09
2023-04-07T04:50:19.276Z,77.20
2023-04-07T04:52:46.981Z,77.34
2023-04-07T04:55:19.900Z,77.14
2023-04-07T04:57:47.474Z,77.36
2023-04-07T05:00:19.937Z,77.44
2023-04-07T05:02:49.255Z,77.51
2023-04-07T05:05:16.389Z,77.43
2023-04-07T05:07:43.816Z,77.49
2023-04-07T05:10:13.543Z,77.19
2023-04-07T05:12:46.649Z,77.42
2023-04-07T05:15:15.322Z,77.58
2023-04-07T05:17:43.908Z,77.40
2023-04-07T05:20:13.064Z,77.28
2023-04-07T05:22:41.548Z,77.06
2023-04-07T05:25:12.164Z,77.32
2023-04-07T05:27:41.190Z,77.46
2023-04-07T05:30:13.395Z,77.50
2023-04-07T05:32:40.182Z,77.58
2023-04-07T05:35:16.275Z,77.63
2023-04-07T05:37:50.280Z,77.51
2023-04-07T05:40:17.069Z,77.59
2023-04-07T05:42:44.220Z,77.45
2023-04-07T05:45:11.878Z,77.35
2023-04-07T05:47:41.833Z,77.40
2023-04-07T05:50:12.401Z,77.40
2023-04-07T05:52:40.988Z,77.35
2023-04-07T05:55:18.603Z,77.10
2023-04-07T05:57:45.338Z,77.09
2023-04-07T06:00:12.917Z,76.97
2023-04-07T06:02:43.997Z,77.21
2023-04-07T06:05:16.342Z,77.32
2023-04-07T06:07:44.040Z,77.14
2023-04-07T06:10:11.004Z,76.87
2023-04-07T06:12:37.762Z,77.00
2023-04-07T06:15:04.682Z,76.75
2023-04-07T06:17:31.460Z,76.56
2023-04-07T06:19:58.168Z,76.39
2023-04-07T06:22:25.324Z,76.66
2023-04-07T06:24:51.983Z,76.45
2023-04-07T06:27:18.703Z,76.34
2023-04-07T06:29:47.862Z,76.09
2023-04-07T06:32:14.574Z,76.52
2023-04-07T06:34:41.454Z,76.34
2023-04-07T06:37:09.258Z,76.05
2023-04-07T06:39:36.293Z,76.24
2023-04-07T06:42:03.003Z,76.09
2023-04-07T06:44:35.724Z,76.02
2023-04-07T06:47:02.398Z,76.07
2023-04-07T06:49:29.176Z,76.26
2023-04-07T06:51:56.019Z,76.20
2023-04-07T06:54:22.709Z,76.02
2023-04-07T06:56:49.969Z,76.09
2023-04-07T06:59:16.641Z,75.80
2023-04-07T07:01:43.982Z,75.88
2023-04-07T07:04:11.006Z,75.42
2023-04-07T07:06:38.154Z,74.29
2023-04-07T07:09:04.889Z,74.38
2023-04-07T07:11:31.569Z,74.43
2023-04-07T07:13:58.257Z,73.56
2023-04-07T07:16:25.084Z,73.06
2023-04-07T07:18:51.756Z,72.45
2023-04-07T07:21:19.366Z,72.27
2023-04-07T07:23:46.414Z,71.70
2023-04-07T07:26:13.367Z,72.25
2023-04-07T07:28:40.048Z,71.26
2023-04-07T07:31:11.269Z,70.33
2023-04-07T07:33:40.630Z,70.08
2023-04-07T07:36:08.576Z,69.72
2023-04-07T07:38:37.078Z,71.25
2023-04-07T07:41:04.636Z,71.19
2023-04-07T07:43:31.382Z,71.74
2023-04-07T07:45:58.125Z,72.05
2023-04-07T07:48:25.062Z,70.20
2023-04-07T07:50:52.664Z,70.57
2023-04-07T07:53:19.490Z,69.79
2023-04-07T07:55:47.339Z,68.01
2023-04-07T07:58:14.132Z,68.79
2023-04-07T08:00:41.037Z,67.23
2023-04-07T08:03:08.461Z,66.10
2023-04-07T08:05:35.454Z,64.30
2023-04-07T08:08:03.210Z,66.12
2023-04-07T08:10:30.023Z,67.56
2023-04-07T08:12:56.939Z,67.78
2023-04-07T08:15:23.840Z,65.27
2023-04-07T08:17:50.615Z,62.22
2023-04-07T08:20:17.568Z,62.39
2023-04-07T08:22:44.435Z,61.03
2023-04-07T08:25:11.283Z,58.86
2023-04-07T08:27:38.100Z,58.99
2023-04-07T08:30:08.877Z,58.25
2023-04-07T08:32:40.898Z,57.66
2023-04-07T08:35:08.278Z,57.73
2023-04-07T08:37:35.193Z,61.16
2023-04-07T08:40:04.796Z,59.52
2023-04-07T08:42:36.795Z,59.03
2023-04-07T08:45:07.546Z,62.32
2023-04-07T08:47:37.899Z,59.70
2023-04-07T08:50:10.105Z,59.88
2023-04-07T08:52:53.701Z,60.84
2023-04-07T08:55:21.057Z,62.70
2023-04-07T08:57:48.209Z,62.71
2023-04-07T09:00:15.189Z,64.51
2023-04-07T09:02:45.880Z,63.58
2023-04-07T09:05:14.788Z,63.07
2023-04-07T09:07:43.442Z,63.30
2023-04-07T09:10:10.722Z,61.57
2023-04-07T09:12:37.707Z,61.94
2023-04-07T09:15:07.014Z,59.51
2023-04-07T09:17:33.995Z,60.11
2023-04-07T09:20:01.634Z,58.10
2023-04-07T09:22:43.206Z,57.87
2023-04-07T09:25:10.908Z,59.45
2023-04-07T09:27:37.681Z,59.34
2023-04-07T09:30:13.050Z,56.83
2023-04-07T09:32:41.643Z,58.11
2023-04-07T09:35:09.303Z,60.54
2023-04-07T09:37:36.429Z,59.41
2023-04-07T09:40:04.032Z,58.50
2023-04-07T09:42:36.176Z,56.37
2023-04-07T09:45:03.206Z,58.44
2023-04-07T09:47:33.036Z,57.00
2023-04-07T09:49:59.997Z,58.25
2023-04-07T09:52:50.065Z,61.03
2023-04-07T09:55:17.566Z,57.85
2023-04-07T09:57:44.776Z,59.07
2023-04-07T10:00:12.194Z,57.34
2023-04-07T10:02:42.461Z,57.76
2023-04-07T10:05:10.732Z,57.36
2023-04-07T10:07:37.499Z,57.40
2023-04-07T10:10:04.931Z,58.63
2023-04-07T10:12:34.727Z,55.15
2023-04-07T10:15:02.395Z,55.86
2023-04-07T10:17:29.692Z,56.81
2023-04-07T10:19:59.667Z,55.41
2023-04-07T10:22:28.008Z,54.24
2023-04-07T10:24:58.984Z,57.24
2023-04-07T10:27:42.992Z,56.75
2023-04-07T10:30:14.276Z,55.39
2023-04-07T10:32:51.011Z,54.38
2023-04-07T10:35:17.984Z,56.38
2023-04-07T10:38:16.756Z,54.35
2023-04-07T10:40:43.587Z,54.00
2023-04-07T10:43:13.861Z,52.07
2023-04-07T10:45:49.672Z,51.01
2023-04-07T10:48:18.324Z,51.00
2023-04-07T10:50:46.211Z,50.61
2023-04-07T10:53:16.413Z,49.39
2023-04-07T10:55:46.789Z,51.17
2023-04-07T10:58:39.948Z,50.25
2023-04-07T11:01:06.548Z,50.30
2023-04-07T11:03:43.059Z,51.20
2023-04-07T11:06:11.986Z,48.54
2023-04-07T11:08:43.133Z,47.66
2023-04-07T11:11:12.085Z,47.11
2023-04-07T11:13:49.594Z,47.66
2023-04-07T11:16:17.980Z,46.16
2023-04-07T11:18:46.538Z,46.11
2023-04-07T11:21:18.032Z,48.23
2023-04-07T11:23:46.192Z,43.11
2023-04-07T11:26:14.665Z,41.42
2023-04-07T11:28:50.050Z,39.27
2023-04-07T11:31:27.778Z,38.78
2023-04-07T11:33:56.308Z,36.82
2023-04-07T11:36:38.305Z,35.62
2023-04-07T11:39:05.150Z,35.93
2023-04-07T11:41:33.609Z,37.70
2023-04-07T11:44:06.997Z,39.38
2023-04-07T11:46:33.828Z,41.91
2023-04-07T11:49:14.494Z,42.11
2023-04-07T11:51:45.118Z,44.07
2023-04-07T11:54:11.952Z,45.50
2023-04-07T11:56:46.718Z,47.36
2023-04-07T11:59:24.286Z,49.92
2023-04-07T12:01:53.455Z,51.30
2023-04-07T12:04:22.246Z,51.90
2023-04-07T12:06:49.651Z,50.87
2023-04-07T12:09:31.082Z,50.90
2023-04-07T12:11:58.590Z,53.33
2023-04-07T12:14:26.484Z,53.18
2023-04-07T12:16:56.415Z,53.73
2023-04-07T12:19:24.250Z,55.38
2023-04-07T12:21:51.073Z,55.08
2023-04-07T12:24:17.977Z,54.54
2023-04-07T12:26:45.382Z,54.00
2023-04-07T12:29:12.167Z,54.80
2023-04-07T12:31:38.921Z,54.70
2023-04-07T12:34:05.832Z,55.75
2023-04-07T12:36:33.459Z,55.90
2023-04-07T12:39:00.212Z,56.96
2023-04-07T12:41:27.849Z,59.65
2023-04-07T12:43:54.761Z,62.80
2023-04-07T12:46:21.959Z,62.01
2023-04-07T12:48:48.740Z,64.50
2023-04-07T12:51:15.559Z,65.15
2023-04-07T12:53:42.743Z,64.66
2023-04-07T12:56:10.999Z,64.42
2023-04-07T12:58:37.760Z,65.05
2023-04-07T13:01:04.524Z,64.90
2023-04-07T13:03:31.467Z,64.29
2023-04-07T13:06:01.356Z,65.09
2023-04-07T13:08:29.502Z,63.94
2023-04-07T13:10:57.164Z,62.89
2023-04-07T13:13:24.524Z,62.43
2023-04-07T13:15:54.526Z,62.30
2023-04-07T13:18:21.985Z,63.01
2023-04-07T13:21:02.854Z,65.70
2023-04-07T13:23:42.767Z,65.13
2023-04-07T13:26:10.614Z,61.78
2023-04-07T13:28:37.564Z,59.31
2023-04-07T13:31:04.334Z,58.25
2023-04-07T13:33:31.260Z,57.79
2023-04-07T13:35:57.987Z,57.60
2023-04-07T13:38:24.755Z,55.92
2023-04-07T13:40:52.806Z,57.38
2023-04-07T13:43:19.495Z,56.54
2023-04-07T13:45:47.062Z,59.98
2023-04-07T13:48:13.838Z,59.92
2023-04-07T13:50:41.060Z,56.18
2023-04-07T13:53:08.200Z,56.68
2023-04-07T13:55:34.874Z,55.84
2023-04-07T13:58:01.598Z,56.97
2023-04-07T14:00:31.751Z,55.84
2023-04-07T14:02:59.483Z,55.75
2023-04-07T14:05:26.687Z,55.51
2023-04-07T14:07:54.600Z,51.27
2023-04-07T14:10:21.803Z,51.04
2023-04-07T14:12:48.698Z,51.07
2023-04-07T14:15:16.988Z,50.18
2023-04-07T14:17:45.016Z,49.17
2023-04-07T14:20:11.757Z,49.40
2023-04-07T14:22:38.450Z,49.08
2023-04-07T14:25:05.851Z,48.03
2023-04-07T14:27:32.567Z,48.78
2023-04-07T14:29:59.799Z,49.08
2023-04-07T14:32:29.808Z,49.49
2023-04-07T14:34:56.848Z,49.60
2023-04-07T14:37:26.819Z,49.49
2023-04-07T14:40:02.568Z,50.23
2023-04-07T14:42:33.582Z,49.06
2023-04-07T14:45:03.211Z,49.78
2023-04-07T14:47:30.088Z,49.78
2023-04-07T14:49:56.833Z,50.42
2023-04-07T14:52:23.627Z,51.53
2023-04-07T14:54:50.425Z,51.24
2023-04-07T14:57:17.326Z,50.55
2023-04-07T14:59:44.155Z,51.62
2023-04-07T15:02:10.997Z,51.57
2023-04-07T15:04:41.178Z,53.17
2023-04-07T15:07:08.069Z,54.88
2023-04-07T15:09:34.819Z,55.84
2023-04-07T15:12:02.347Z,56.58
2023-04-07T15:14:29.031Z,56.10
2023-04-07T15:16:58.827Z,57.34
2023-04-07T15:19:25.637Z,56.86
2023-04-07T15:21:52.395Z,56.97
2023-04-07T15:24:19.795Z,56.96
2023-04-07T15:26:46.466Z,57.47
2023-04-07T15:29:13.202Z,56.44
2023-04-07T15:31:39.893Z,56.55
2023-04-07T15:34:06.589Z,56.78
2023-04-07T15:36:33.270Z,56.94
2023-04-07T15:39:04.599Z,57.04
2023-04-07T15:41:31.806Z,57.09
2023-04-07T15:44:03.010Z,56.68
2023-04-07T15:46:29.782Z,55.83
2023-04-07T15:48:56.471Z,55.11
2023-04-07T15:51:23.573Z,54.54
2023-04-07T15:53:50.578Z,53.00
2023-04-07T15:56:17.384Z,54.48
2023-04-07T15:58:45.552Z,53.04
2023-04-07T16:01:15.107Z,52.97
2023-04-07T16:03:45.514Z,52.78
2023-04-07T16:06:12.469Z,52.78
2023-04-07T16:08:39.464Z,52.70
2023-04-07T16:11:06.165Z,52.02
2023-04-07T16:13:32.913Z,51.85
2023-04-07T16:15:59.660Z,52.06
2023-04-07T16:18:26.381Z,51.92
2023-04-07T16:20:53.078Z,51.91
2023-04-07T16:23:19.825Z,52.90
2023-04-07T16:25:46.559Z,53.01
2023-04-07T16:28:13.245Z,53.54
2023-04-07T16:30:40.260Z,54.19
2023-04-07T16:33:07.076Z,53.12
2023-04-07T16:35:34.061Z,52.82
2023-04-07T16:38:06.193Z,53.94
2023-04-07T16:40:33.137Z,53.51
2023-04-07T16:42:59.859Z,54.91
2023-04-07T16:45:26.564Z,54.98
2023-04-07T16:47:53.324Z,55.51
2023-04-07T16:50:20.678Z,55.18
2023-04-07T16:52:48.088Z,54.38
2023-04-07T16:55:14.834Z,54.66
2023-04-07T16:57:41.620Z,54.67
2023-04-07T17:00:08.700Z,54.41
2023-04-07T17:02:35.621Z,55.50
2023-04-07T17:05:02.401Z,55.32
2023-04-07T17:07:29.117Z,54.02
2023-04-07T17:09:55.898Z,55.17
2023-04-07T17:12:22.846Z,57.01
2023-04-07T17:14:50.053Z,58.45
2023-04-07T17:17:16.790Z,58.63
2023-04-07T17:19:43.568Z,56.69
2023-04-07T17:22:10.447Z,57.60
2023-04-07T17:24:37.107Z,56.21
2023-04-07T17:27:03.813Z,55.93
2023-04-07T17:29:31.517Z,56.45
2023-04-07T17:31:58.307Z,57.78
2023-04-07T17:34:25.251Z,57.86
2023-04-07T17:36:52.021Z,57.63
2023-04-07T17:39:18.726Z,58.97
2023-04-07T17:41:46.955Z,60.73
2023-04-07T17:44:13.701Z,62.82
2023-04-07T17:46:40.571Z,63.47
2023-04-07T17:49:07.322Z,65.73
2023-04-07T17:51:34.109Z,67.76
2023-04-07T17:54:00.821Z,66.93
2023-04-07T17:56:27.542Z,67.84
2023-04-07T17:58:54.578Z,68.72
2023-04-07T18:01:21.416Z,68.84
2023-04-07T18:03:48.815Z,69.74
2023-04-07T18:06:17.042Z,69.13
2023-04-07T18:08:47.913Z,69.24
2023-04-07T18:11:15.214Z,69.48
2023-04-07T18:13:42.147Z,69.81
2023-04-07T18:16:10.575Z,70.28
2023-04-07T18:18:40.122Z,70.34
2023-04-07T18:21:07.264Z,70.69
2023-04-07T18:23:34.597Z,71.00
2023-04-07T18:26:05.495Z,70.98
2023-04-07T18:28:32.265Z,71.08
2023-04-07T18:31:04.205Z,70.88
2023-04-07T18:33:33.244Z,70.31
2023-04-07T18:36:04.252Z,70.04
2023-04-07T18:38:31.238Z,69.87
2023-04-07T18:40:58.000Z,69.26
2023-04-07T18:43:25.201Z,68.96
2023-04-07T18:45:52.925Z,68.05
2023-04-07T18:48:20.388Z,68.58
2023-04-07T18:50:54.029Z,67.87
2023-04-07T18:53:21.763Z,68.37
2023-04-07T18:55:48.783Z,68.94
2023-04-07T18:58:15.725Z,68.63
2023-04-07T19:00:42.890Z,69.29
2023-04-07T19:03:09.994Z,69.21
2023-04-07T19:05:40.096Z,69.11
2023-04-07T19:08:07.014Z,69.14
2023-04-07T19:14:06.157Z,69.97
2023-04-07T19:16:34.257Z,69.72
2023-04-07T19:19:01.063Z,70.09
2023-04-07T19:21:27.839Z,69.98
2023-04-07T19:23:56.357Z,70.45
2023-04-07T19:26:23.256Z,69.88
2023-04-07T19:28:50.397Z,70.21
2023-04-07T19:31:17.129Z,70.41
2023-04-07T19:33:43.905Z,70.40
2023-04-07T19:36:11.237Z,70.66
2023-04-07T19:38:37.940Z,70.42
2023-04-07T19:41:04.770Z,70.55
2023-04-07T19:43:31.578Z,70.50
2023-04-07T19:45:58.743Z,70.49
2023-04-07T19:48:26.530Z,70.80
2023-04-07T19:50:53.516Z,71.19
2023-04-07T19:53:20.246Z,70.76
2023-04-07T19:55:48.729Z,71.22
2023-04-07T19:58:17.398Z,71.24
2023-04-07T20:00:45.688Z,71.24
2023-04-07T20:03:12.740Z,71.26
2023-04-07T20:05:39.849Z,70.96
2023-04-07T20:08:06.598Z,70.59
2023-04-07T20:10:33.614Z,71.10
2023-04-07T20:13:00.285Z,70.80
2023-04-07T20:15:27.053Z,71.10
2023-04-07T20:17:53.809Z,70.95
2023-04-07T20:20:20.747Z,71.25
2023-04-07T20:22:47.480Z,71.07
2023-04-07T20:25:14.151Z,70.88
2023-04-07T20:27:40.882Z,71.14
2023-04-07T20:30:08.303Z,71.56
2023-04-07T20:32:35.459Z,71.40
2023-04-07T20:35:03.687Z,71.37
2023-04-07T20:37:30.410Z,71.20
2023-04-07T20:39:57.247Z,71.83
2023-04-07T20:42:24.046Z,72.04
2023-04-07T20:44:50.860Z,72.17
2023-04-07T20:47:17.900Z,72.26
2023-04-07T20:49:44.635Z,72.01
2023-04-07T20:52:11.414Z,72.27
2023-04-07T20:54:38.101Z,72.72
2023-04-07T20:57:05.143Z,73.12
2023-04-07T20:59:32.996Z,73.32
2023-04-07T21:01:59.831Z,73.16
2023-04-07T21:04:26.777Z,73.21
2023-04-07T21:06:53.500Z,72.85
2023-04-07T21:09:20.193Z,73.16
2023-04-07T21:11:46.982Z,72.93
2023-04-07T21:14:13.667Z,73.67
2023-04-07T21:16:40.373Z,73.17
2023-04-07T21:19:07.694Z,73.35
2023-04-07T21:21:34.376Z,73.29
2023-04-07T21:24:01.460Z,73.85
2023-04-07T21:26:28.480Z,73.82
2023-04-07T21:28:55.405Z,73.68
2023-04-07T21:31:23.905Z,73.56
2023-04-07T21:33:51.534Z,73.87
2023-04-07T21:36:18.289Z,73.91
2023-04-07T21:38:45.043Z,74.12
2023-04-07T21:41:11.781Z,74.23
2023-04-07T21:43:38.655Z,74.24
2023-04-07T21:46:05.826Z,74.36
2023-04-07T21:48:33.821Z,74.26
2023-04-07T21:51:01.376Z,74.33
2023-04-07T21:53:28.119Z,74.02
2023-04-07T21:55:54.799Z,74.01
2023-04-07T21:58:23.576Z,74.49
2023-04-07T22:00:50.313Z,74.46
2023-04-07T22:03:18.726Z,74.73
2023-04-07T22:05:46.669Z,74.77
2023-04-07T22:08:13.509Z,74.73
2023-04-07T22:10:40.511Z,75.44
2023-04-07T22:13:07.176Z,75.39
2023-04-07T22:15:33.907Z,75.32
2023-04-07T22:18:00.642Z,75.25
2023-04-07T22:20:28.046Z,75.84
2023-04-07T22:22:57.693Z,75.74
2023-04-07T22:25:25.024Z,75.61
2023-04-07T22:27:52.713Z,75.46
2023-04-07T22:30:20.092Z,75.19
2023-04-07T22:32:46.808Z,75.70
2023-04-07T22:35:13.570Z,76.31
2023-04-07T22:37:40.361Z,76.05
2023-04-07T22:40:07.977Z,75.43
2023-04-07T22:42:34.742Z,75.03
2023-04-07T22:45:01.613Z,74.96
2023-04-07T22:47:28.336Z,75.24
2023-04-07T22:49:55.080Z,75.20
2023-04-07T22:52:21.762Z,75.62
2023-04-07T22:54:48.438Z,75.52
2023-04-07T22:57:15.131Z,75.54
2023-04-07T22:59:41.823Z,75.80
2023-04-07T23:02:08.613Z,75.61
2023-04-07T23:04:35.814Z,75.99
2023-04-07T23:07:02.635Z,76.31
2023-04-07T23:09:29.392Z,75.90
2023-04-07T23:11:57.171Z,75.78
2023-04-07T23:14:23.857Z,76.30
2023-04-07T23:16:51.291Z,76.17
2023-04-07T23:19:18.187Z,76.18
2023-04-07T23:21:44.874Z,76.94
2023-04-07T23:24:11.833Z,76.13
2023-04-07T23:26:38.547Z,76.09
2023-04-07T23:29:05.316Z,76.25
2023-04-07T23:31:32.312Z,76.19
2023-04-07T23:33:59.965Z,76.32
2023-04-07T23:36:27.364Z,75.81
2023-04-07T23:38:57.181Z,76.00
2023-04-07T23:41:23.933Z,76.16
2023-04-07T23:43:50.690Z,76.25
2023-04-07T23:46:17.402Z,75.91
2023-04-07T23:48:44.210Z,75.50
2023-04-07T23:51:10.925Z,75.84
2023-04-07T23:53:37.624Z,75.81
2023-04-07T23:56:04.291Z,75.34
2023-04-07T23:58:31.088Z,75.31
